sensor_id;sensor_type;location;lat;lon;timestamp;pressure;altitude;pressure_sealevel;temperature;humidity
55685;BME280;41883;49.544;8.646;2023-04-21T00:01:58;100206.03;;;5.90;nan
55685;BME280;41883;49.544;8.646;2023-04-21T00:04:23;100204.84;;;5.94;nan
55685;BME280;41883;49.544;8.646;2023-04-21T00:06:48;100204.56;;;5.97;nan
55685;BME280;41883;49.544;8.646;2023-04-21T00:09:14;100197.69;;;5.96;nan
55685;BME280;41883;49.544;8.646;2023-04-21T00:11:39;100198.50;;;5.97;nan
55685;BME280;41883;49.544;8.646;2023-04-21T00:14:05;100197.69;;;5.96;nan
55685;BME280;41883;49.544;8.646;2023-04-21T00:16:30;100196.34;;;5.90;nan
55685;BME280;41883;49.544;8.646;2023-04-21T00:18:55;100195.78;;;5.87;nan
55685;BME280;41883;49.544;8.646;2023-04-21T00:21:20;100205.44;;;5.86;nan
55685;BME280;41883;49.544;8.646;2023-04-21T00:23:45;100201.94;;;5.76;nan
55685;BME280;41883;49.544;8.646;2023-04-21T00:26:11;100205.31;;;5.67;nan
55685;BME280;41883;49.544;8.646;2023-04-21T00:28:36;100202.63;;;5.57;nan
55685;BME280;41883;49.544;8.646;2023-04-21T00:31:01;100199.56;;;5.52;nan
55685;BME280;41883;49.544;8.646;2023-04-21T00:33:26;100200.53;;;5.51;nan
55685;BME280;41883;49.544;8.646;2023-04-21T00:35:52;100202.31;;;5.50;nan
55685;BME280;41883;49.544;8.646;2023-04-21T00:38:18;100193.03;;;5.46;nan
55685;BME280;41883;49.544;8.646;2023-04-21T00:40:43;100197.47;;;5.46;nan
55685;BME280;41883;49.544;8.646;2023-04-21T00:43:08;100196.59;;;5.45;nan
55685;BME280;41883;49.544;8.646;2023-04-21T00:45:33;100193.44;;;5.42;nan
55685;BME280;41883;49.544;8.646;2023-04-21T00:47:59;100193.09;;;5.35;nan
55685;BME280;41883;49.544;8.646;2023-04-21T00:50:25;100190.84;;;5.30;nan
55685;BME280;41883;49.544;8.646;2023-04-21T00:52:50;100195.25;;;5.30;nan
55685;BME280;41883;49.544;8.646;2023-04-21T00:55:15;100195.59;;;5.37;nan
55685;BME280;41883;49.544;8.646;2023-04-21T00:57:40;100194.38;;;5.41;nan
55685;BME280;41883;49.544;8.646;2023-04-21T01:00:06;100184.72;;;5.41;nan
55685;BME280;41883;49.544;8.646;2023-04-21T01:02:34;100186.72;;;5.49;nan
55685;BME280;41883;49.544;8.646;2023-04-21T01:05:00;100193.94;;;5.57;nan
55685;BME280;41883;49.544;8.646;2023-04-21T01:07:25;100191.38;;;5.66;nan
55685;BME280;41883;49.544;8.646;2023-04-21T01:09:50;100190.09;;;5.82;nan
55685;BME280;41883;49.544;8.646;2023-04-21T01:12:16;100185.16;;;5.88;nan
55685;BME280;41883;49.544;8.646;2023-04-21T01:14:41;100188.81;;;5.97;nan
55685;BME280;41883;49.544;8.646;2023-04-21T01:17:06;100188.56;;;6.00;nan
55685;BME280;41883;49.544;8.646;2023-04-21T01:19:37;100183.19;;;6.02;nan
55685;BME280;41883;49.544;8.646;2023-04-21T01:22:05;100186.38;;;6.05;nan
55685;BME280;41883;49.544;8.646;2023-04-21T01:24:40;100193.19;;;6.08;nan
55685;BME280;41883;49.544;8.646;2023-04-21T01:27:13;100189.19;;;6.13;nan
55685;BME280;41883;49.544;8.646;2023-04-21T01:29:40;100186.16;;;6.18;nan
55685;BME280;41883;49.544;8.646;2023-04-21T01:32:07;100202.66;;;6.30;nan
55685;BME280;41883;49.544;8.646;2023-04-21T01:34:32;100189.94;;;6.25;nan
55685;BME280;41883;49.544;8.646;2023-04-21T01:36:58;100193.66;;;6.23;nan
55685;BME280;41883;49.544;8.646;2023-04-21T01:39:23;100192.81;;;6.22;nan
55685;BME280;41883;49.544;8.646;2023-04-21T01:41:48;100187.81;;;6.19;nan
55685;BME280;41883;49.544;8.646;2023-04-21T01:44:13;100181.31;;;6.13;nan
55685;BME280;41883;49.544;8.646;2023-04-21T01:46:38;100176.44;;;6.09;nan
55685;BME280;41883;49.544;8.646;2023-04-21T01:49:04;100177.66;;;6.05;nan
55685;BME280;41883;49.544;8.646;2023-04-21T01:51:29;100180.44;;;6.03;nan
55685;BME280;41883;49.544;8.646;2023-04-21T01:53:55;100181.38;;;6.02;nan
55685;BME280;41883;49.544;8.646;2023-04-21T01:56:20;100182.91;;;6.05;nan
55685;BME280;41883;49.544;8.646;2023-04-21T01:58:45;100182.53;;;6.09;nan
55685;BME280;41883;49.544;8.646;2023-04-21T02:01:10;100175.47;;;6.10;nan
55685;BME280;41883;49.544;8.646;2023-04-21T02:03:35;100174.66;;;6.09;nan
55685;BME280;41883;49.544;8.646;2023-04-21T02:06:00;100187.50;;;6.12;nan
55685;BME280;41883;49.544;8.646;2023-04-21T02:08:26;100182.84;;;6.16;nan
55685;BME280;41883;49.544;8.646;2023-04-21T02:10:51;100180.47;;;6.13;nan
55685;BME280;41883;49.544;8.646;2023-04-21T02:13:16;100176.72;;;6.06;nan
55685;BME280;41883;49.544;8.646;2023-04-21T02:15:41;100179.31;;;5.96;nan
55685;BME280;41883;49.544;8.646;2023-04-21T02:18:06;100180.03;;;5.87;nan
55685;BME280;41883;49.544;8.646;2023-04-21T02:20:32;100184.16;;;5.80;nan
55685;BME280;41883;49.544;8.646;2023-04-21T02:22:57;100183.94;;;5.71;nan
55685;BME280;41883;49.544;8.646;2023-04-21T02:25:22;100181.41;;;5.60;nan
55685;BME280;41883;49.544;8.646;2023-04-21T02:27:47;100184.66;;;5.52;nan
55685;BME280;41883;49.544;8.646;2023-04-21T02:30:12;100180.16;;;5.43;nan
55685;BME280;41883;49.544;8.646;2023-04-21T02:32:38;100181.19;;;5.31;nan
55685;BME280;41883;49.544;8.646;2023-04-21T02:35:03;100183.34;;;5.26;nan
55685;BME280;41883;49.544;8.646;2023-04-21T02:37:28;100190.06;;;5.19;nan
55685;BME280;41883;49.544;8.646;2023-04-21T02:39:53;100186.63;;;5.18;nan
55685;BME280;41883;49.544;8.646;2023-04-21T02:42:19;100188.19;;;5.09;nan
55685;BME280;41883;49.544;8.646;2023-04-21T02:44:44;100191.44;;;5.02;nan
55685;BME280;41883;49.544;8.646;2023-04-21T02:47:09;100190.38;;;4.93;nan
55685;BME280;41883;49.544;8.646;2023-04-21T02:49:38;100183.84;;;4.87;nan
55685;BME280;41883;49.544;8.646;2023-04-21T02:52:03;100194.00;;;4.81;nan
55685;BME280;41883;49.544;8.646;2023-04-21T02:54:28;100202.94;;;4.78;nan
55685;BME280;41883;49.544;8.646;2023-04-21T02:56:54;100196.59;;;4.81;nan
55685;BME280;41883;49.544;8.646;2023-04-21T02:59:19;100199.13;;;4.82;nan
55685;BME280;41883;49.544;8.646;2023-04-21T03:01:44;100196.88;;;4.78;nan
55685;BME280;41883;49.544;8.646;2023-04-21T03:04:10;100194.59;;;4.73;nan
55685;BME280;41883;49.544;8.646;2023-04-21T03:06:36;100188.66;;;4.71;nan
55685;BME280;41883;49.544;8.646;2023-04-21T03:09:01;100185.09;;;4.72;nan
55685;BME280;41883;49.544;8.646;2023-04-21T03:11:27;100193.16;;;4.80;nan
55685;BME280;41883;49.544;8.646;2023-04-21T03:13:52;100185.75;;;4.85;nan
55685;BME280;41883;49.544;8.646;2023-04-21T03:16:17;100184.56;;;4.89;nan
55685;BME280;41883;49.544;8.646;2023-04-21T03:18:43;100185.84;;;4.95;nan
55685;BME280;41883;49.544;8.646;2023-04-21T03:21:08;100183.69;;;5.00;nan
55685;BME280;41883;49.544;8.646;2023-04-21T03:23:34;100172.81;;;5.16;nan
55685;BME280;41883;49.544;8.646;2023-04-21T03:25:59;100176.97;;;5.19;nan
55685;BME280;41883;49.544;8.646;2023-04-21T03:28:24;100179.19;;;5.23;nan
55685;BME280;41883;49.544;8.646;2023-04-21T03:30:49;100178.13;;;5.26;nan
55685;BME280;41883;49.544;8.646;2023-04-21T03:33:14;100176.31;;;5.26;nan
55685;BME280;41883;49.544;8.646;2023-04-21T03:35:40;100180.03;;;5.24;nan
55685;BME280;41883;49.544;8.646;2023-04-21T03:38:05;100170.88;;;5.18;nan
55685;BME280;41883;49.544;8.646;2023-04-21T03:40:30;100173.78;;;5.15;nan
55685;BME280;41883;49.544;8.646;2023-04-21T03:42:55;100168.75;;;5.12;nan
55685;BME280;41883;49.544;8.646;2023-04-21T03:45:20;100175.22;;;5.08;nan
55685;BME280;41883;49.544;8.646;2023-04-21T03:47:46;100178.69;;;4.97;nan
55685;BME280;41883;49.544;8.646;2023-04-21T03:50:12;100182.22;;;4.86;nan
55685;BME280;41883;49.544;8.646;2023-04-21T03:52:37;100179.34;;;4.78;nan
55685;BME280;41883;49.544;8.646;2023-04-21T03:55:02;100188.91;;;4.79;nan
55685;BME280;41883;49.544;8.646;2023-04-21T03:57:29;100183.28;;;4.84;nan
55685;BME280;41883;49.544;8.646;2023-04-21T03:59:54;100181.84;;;4.91;nan
55685;BME280;41883;49.544;8.646;2023-04-21T04:02:19;100180.38;;;4.98;nan
55685;BME280;41883;49.544;8.646;2023-04-21T04:04:44;100180.94;;;5.02;nan
55685;BME280;41883;49.544;8.646;2023-04-21T04:07:09;100175.44;;;5.05;nan
55685;BME280;41883;49.544;8.646;2023-04-21T04:09:35;100168.56;;;5.04;nan
55685;BME280;41883;49.544;8.646;2023-04-21T04:12:00;100166.66;;;5.06;nan
55685;BME280;41883;49.544;8.646;2023-04-21T04:14:27;100174.13;;;5.10;nan
55685;BME280;41883;49.544;8.646;2023-04-21T04:16:52;100178.03;;;5.16;nan
55685;BME280;41883;49.544;8.646;2023-04-21T04:19:17;100177.47;;;5.13;nan
55685;BME280;41883;49.544;8.646;2023-04-21T04:21:42;100180.22;;;5.11;nan
55685;BME280;41883;49.544;8.646;2023-04-21T04:24:08;100174.06;;;5.01;nan
55685;BME280;41883;49.544;8.646;2023-04-21T04:26:35;100177.13;;;5.06;nan
55685;BME280;41883;49.544;8.646;2023-04-21T04:29:02;100187.38;;;5.09;nan
55685;BME280;41883;49.544;8.646;2023-04-21T04:31:29;100191.44;;;5.02;nan
55685;BME280;41883;49.544;8.646;2023-04-21T04:33:54;100185.84;;;4.95;nan
55685;BME280;41883;49.544;8.646;2023-04-21T04:36:20;100189.91;;;4.88;nan
55685;BME280;41883;49.544;8.646;2023-04-21T04:38:45;100182.78;;;4.79;nan
55685;BME280;41883;49.544;8.646;2023-04-21T04:41:10;100180.78;;;4.71;nan
55685;BME280;41883;49.544;8.646;2023-04-21T04:43:36;100180.44;;;4.64;nan
55685;BME280;41883;49.544;8.646;2023-04-21T04:46:03;100182.50;;;4.61;nan
55685;BME280;41883;49.544;8.646;2023-04-21T04:48:28;100185.38;;;4.58;nan
55685;BME280;41883;49.544;8.646;2023-04-21T04:50:53;100177.72;;;4.66;nan
55685;BME280;41883;49.544;8.646;2023-04-21T04:53:19;100179.00;;;4.72;nan
55685;BME280;41883;49.544;8.646;2023-04-21T04:55:44;100180.06;;;4.80;nan
55685;BME280;41883;49.544;8.646;2023-04-21T04:58:10;100173.19;;;4.79;nan
55685;BME280;41883;49.544;8.646;2023-04-21T05:00:35;100181.94;;;4.89;nan
55685;BME280;41883;49.544;8.646;2023-04-21T05:03:01;100178.13;;;4.94;nan
55685;BME280;41883;49.544;8.646;2023-04-21T05:05:26;100187.44;;;4.86;nan
55685;BME280;41883;49.544;8.646;2023-04-21T05:07:51;100196.13;;;4.87;nan
55685;BME280;41883;49.544;8.646;2023-04-21T05:10:16;100199.47;;;4.89;nan
55685;BME280;41883;49.544;8.646;2023-04-21T05:12:41;100204.19;;;4.95;nan
55685;BME280;41883;49.544;8.646;2023-04-21T05:15:07;100196.47;;;4.94;nan
55685;BME280;41883;49.544;8.646;2023-04-21T05:17:32;100198.31;;;5.03;nan
55685;BME280;41883;49.544;8.646;2023-04-21T05:19:58;100198.66;;;5.09;nan
55685;BME280;41883;49.544;8.646;2023-04-21T05:22:23;100193.84;;;5.26;nan
55685;BME280;41883;49.544;8.646;2023-04-21T05:24:48;100203.19;;;5.40;nan
55685;BME280;41883;49.544;8.646;2023-04-21T05:27:13;100197.06;;;5.50;nan
55685;BME280;41883;49.544;8.646;2023-04-21T05:29:39;100201.09;;;5.54;nan
55685;BME280;41883;49.544;8.646;2023-04-21T05:32:04;100204.53;;;5.55;nan
55685;BME280;41883;49.544;8.646;2023-04-21T05:34:29;100197.72;;;5.64;nan
55685;BME280;41883;49.544;8.646;2023-04-21T05:36:55;100201.09;;;5.75;nan
55685;BME280;41883;49.544;8.646;2023-04-21T05:39:20;100192.47;;;5.85;nan
55685;BME280;41883;49.544;8.646;2023-04-21T05:41:45;100202.25;;;5.83;nan
55685;BME280;41883;49.544;8.646;2023-04-21T05:44:10;100206.28;;;5.87;nan
55685;BME280;41883;49.544;8.646;2023-04-21T05:46:35;100205.66;;;5.94;nan
55685;BME280;41883;49.544;8.646;2023-04-21T05:49:01;100193.28;;;6.06;nan
55685;BME280;41883;49.544;8.646;2023-04-21T05:51:26;100198.06;;;6.22;nan
55685;BME280;41883;49.544;8.646;2023-04-21T05:53:51;100208.03;;;6.28;nan
55685;BME280;41883;49.544;8.646;2023-04-21T05:56:17;100215.28;;;6.46;nan
55685;BME280;41883;49.544;8.646;2023-04-21T05:58:42;100207.03;;;6.60;nan
55685;BME280;41883;49.544;8.646;2023-04-21T06:01:07;100208.59;;;6.72;nan
55685;BME280;41883;49.544;8.646;2023-04-21T06:03:33;100214.72;;;6.83;nan
55685;BME280;41883;49.544;8.646;2023-04-21T06:05:59;100209.34;;;6.94;nan
55685;BME280;41883;49.544;8.646;2023-04-21T06:08:24;100212.38;;;6.89;nan
55685;BME280;41883;49.544;8.646;2023-04-21T06:10:49;100221.38;;;6.87;nan
55685;BME280;41883;49.544;8.646;2023-04-21T06:13:15;100223.28;;;6.85;nan
55685;BME280;41883;49.544;8.646;2023-04-21T06:15:40;100220.50;;;6.86;nan
55685;BME280;41883;49.544;8.646;2023-04-21T06:18:05;100223.13;;;6.86;nan
55685;BME280;41883;49.544;8.646;2023-04-21T06:20:30;100227.72;;;6.84;nan
55685;BME280;41883;49.544;8.646;2023-04-21T06:22:56;100228.28;;;6.88;nan
55685;BME280;41883;49.544;8.646;2023-04-21T06:25:21;100233.00;;;7.04;nan
55685;BME280;41883;49.544;8.646;2023-04-21T06:27:46;100242.03;;;7.20;nan
55685;BME280;41883;49.544;8.646;2023-04-21T06:30:12;100236.75;;;7.11;nan
55685;BME280;41883;49.544;8.646;2023-04-21T06:32:40;100232.63;;;7.28;nan
55685;BME280;41883;49.544;8.646;2023-04-21T06:35:05;100239.94;;;7.34;nan
55685;BME280;41883;49.544;8.646;2023-04-21T06:37:30;100234.69;;;7.53;nan
55685;BME280;41883;49.544;8.646;2023-04-21T06:39:56;100238.16;;;7.63;nan
55685;BME280;41883;49.544;8.646;2023-04-21T06:42:21;100236.59;;;7.90;nan
55685;BME280;41883;49.544;8.646;2023-04-21T06:44:46;100231.09;;;8.21;nan
55685;BME280;41883;49.544;8.646;2023-04-21T06:47:11;100225.78;;;8.40;nan
55685;BME280;41883;49.544;8.646;2023-04-21T06:49:36;100232.22;;;8.65;nan
55685;BME280;41883;49.544;8.646;2023-04-21T06:52:05;100231.41;;;8.83;nan
55685;BME280;41883;49.544;8.646;2023-04-21T06:54:30;100236.69;;;8.83;nan
55685;BME280;41883;49.544;8.646;2023-04-21T06:56:55;100233.91;;;8.84;nan
55685;BME280;41883;49.544;8.646;2023-04-21T06:59:21;100240.84;;;8.85;nan
55685;BME280;41883;49.544;8.646;2023-04-21T07:01:46;100240.41;;;8.90;nan
55685;BME280;41883;49.544;8.646;2023-04-21T07:04:16;100237.19;;;9.14;nan
55685;BME280;41883;49.544;8.646;2023-04-21T07:06:41;100228.59;;;9.48;nan
55685;BME280;41883;49.544;8.646;2023-04-21T07:09:07;100229.09;;;9.69;nan
55685;BME280;41883;49.544;8.646;2023-04-21T07:11:32;100225.16;;;9.73;nan
55685;BME280;41883;49.544;8.646;2023-04-21T07:13:57;100231.06;;;9.93;nan
55685;BME280;41883;49.544;8.646;2023-04-21T07:16:26;100229.84;;;10.32;nan
55685;BME280;41883;49.544;8.646;2023-04-21T07:18:51;100224.84;;;10.55;nan
55685;BME280;41883;49.544;8.646;2023-04-21T07:21:16;100223.00;;;10.55;nan
55685;BME280;41883;49.544;8.646;2023-04-21T07:23:41;100218.06;;;10.60;nan
55685;BME280;41883;49.544;8.646;2023-04-21T07:26:06;100214.53;;;10.78;nan
55685;BME280;41883;49.544;8.646;2023-04-21T07:28:31;100212.63;;;11.45;nan
55685;BME280;41883;49.544;8.646;2023-04-21T07:30:57;100211.44;;;12.05;nan
55685;BME280;41883;49.544;8.646;2023-04-21T07:33:22;100212.41;;;12.13;nan
55685;BME280;41883;49.544;8.646;2023-04-21T07:35:47;100214.06;;;12.22;nan
55685;BME280;41883;49.544;8.646;2023-04-21T07:38:12;100217.00;;;12.35;nan
55685;BME280;41883;49.544;8.646;2023-04-21T07:40:37;100214.47;;;12.50;nan
55685;BME280;41883;49.544;8.646;2023-04-21T07:43:03;100222.53;;;12.65;nan
55685;BME280;41883;49.544;8.646;2023-04-21T07:45:28;100223.22;;;12.59;nan
55685;BME280;41883;49.544;8.646;2023-04-21T07:47:53;100215.91;;;12.61;nan
55685;BME280;41883;49.544;8.646;2023-04-21T07:50:18;100220.69;;;12.26;nan
55685;BME280;41883;49.544;8.646;2023-04-21T07:52:44;100230.00;;;11.81;nan
55685;BME280;41883;49.544;8.646;2023-04-21T07:55:09;100222.91;;;11.73;nan
55685;BME280;41883;49.544;8.646;2023-04-21T07:57:34;100223.75;;;11.90;nan
55685;BME280;41883;49.544;8.646;2023-04-21T08:00:03;100221.94;;;12.46;nan
55685;BME280;41883;49.544;8.646;2023-04-21T08:02:28;100213.34;;;13.07;nan
55685;BME280;41883;49.544;8.646;2023-04-21T08:04:53;100217.88;;;13.29;nan
55685;BME280;41883;49.544;8.646;2023-04-21T08:07:19;100211.22;;;13.71;nan
55685;BME280;41883;49.544;8.646;2023-04-21T08:09:44;100206.22;;;14.06;nan
55685;BME280;41883;49.544;8.646;2023-04-21T08:12:09;100198.97;;;14.30;nan
55685;BME280;41883;49.544;8.646;2023-04-21T08:14:35;100204.06;;;14.91;nan
55685;BME280;41883;49.544;8.646;2023-04-21T08:17:00;100197.94;;;14.90;nan
55685;BME280;41883;49.544;8.646;2023-04-21T08:19:25;100194.91;;;15.15;nan
55685;BME280;41883;49.544;8.646;2023-04-21T08:21:50;100195.47;;;15.32;nan
55685;BME280;41883;49.544;8.646;2023-04-21T08:24:15;100190.59;;;15.14;nan
55685;BME280;41883;49.544;8.646;2023-04-21T08:26:40;100189.06;;;15.47;nan
55685;BME280;41883;49.544;8.646;2023-04-21T08:29:06;100187.28;;;15.76;nan
55685;BME280;41883;49.544;8.646;2023-04-21T08:31:34;100196.31;;;15.82;nan
55685;BME280;41883;49.544;8.646;2023-04-21T08:33:59;100183.94;;;16.37;nan
55685;BME280;41883;49.544;8.646;2023-04-21T08:36:25;100185.66;;;17.13;nan
55685;BME280;41883;49.544;8.646;2023-04-21T08:38:51;100187.31;;;17.60;nan
55685;BME280;41883;49.544;8.646;2023-04-21T08:41:16;100185.28;;;17.76;nan
55685;BME280;41883;49.544;8.646;2023-04-21T08:43:41;100182.84;;;17.81;nan
55685;BME280;41883;49.544;8.646;2023-04-21T08:46:07;100187.50;;;18.19;nan
55685;BME280;41883;49.544;8.646;2023-04-21T08:48:36;100186.56;;;18.97;nan
55685;BME280;41883;49.544;8.646;2023-04-21T08:51:02;100184.28;;;19.00;nan
55685;BME280;41883;49.544;8.646;2023-04-21T08:53:27;100182.97;;;19.66;nan
55685;BME280;41883;49.544;8.646;2023-04-21T08:55:54;100180.06;;;20.30;nan
55685;BME280;41883;49.544;8.646;2023-04-21T08:58:20;100185.00;;;20.70;nan
55685;BME280;41883;49.544;8.646;2023-04-21T09:00:46;100177.28;;;20.73;nan
55685;BME280;41883;49.544;8.646;2023-04-21T09:03:11;100170.97;;;21.40;nan
55685;BME280;41883;49.544;8.646;2023-04-21T09:05:37;100174.63;;;21.81;nan
55685;BME280;41883;49.544;8.646;2023-04-21T09:08:12;100162.25;;;22.44;nan
55685;BME280;41883;49.544;8.646;2023-04-21T09:10:43;100161.69;;;22.42;nan
55685;BME280;41883;49.544;8.646;2023-04-21T09:13:09;100169.44;;;22.96;nan
55685;BME280;41883;49.544;8.646;2023-04-21T09:15:41;100169.66;;;23.40;nan
55685;BME280;41883;49.544;8.646;2023-04-21T09:18:10;100166.88;;;23.51;nan
55685;BME280;41883;49.544;8.646;2023-04-21T09:20:35;100162.06;;;23.03;nan
55685;BME280;41883;49.544;8.646;2023-04-21T09:23:03;100163.53;;;22.82;nan
55685;BME280;41883;49.544;8.646;2023-04-21T09:25:28;100156.94;;;21.97;nan
55685;BME280;41883;49.544;8.646;2023-04-21T09:27:55;100156.72;;;21.63;nan
55685;BME280;41883;49.544;8.646;2023-04-21T09:30:21;100149.81;;;21.44;nan
55685;BME280;41883;49.544;8.646;2023-04-21T09:32:46;100144.16;;;22.16;nan
55685;BME280;41883;49.544;8.646;2023-04-21T09:35:12;100145.44;;;22.65;nan
55685;BME280;41883;49.544;8.646;2023-04-21T09:37:37;100145.81;;;23.15;nan
55685;BME280;41883;49.544;8.646;2023-04-21T09:40:03;100138.19;;;22.54;nan
55685;BME280;41883;49.544;8.646;2023-04-21T09:42:28;100141.19;;;22.69;nan
55685;BME280;41883;49.544;8.646;2023-04-21T09:44:54;100139.47;;;22.11;nan
55685;BME280;41883;49.544;8.646;2023-04-21T09:47:20;100140.13;;;22.42;nan
55685;BME280;41883;49.544;8.646;2023-04-21T09:49:46;100133.59;;;22.14;nan
55685;BME280;41883;49.544;8.646;2023-04-21T09:52:14;100131.41;;;22.23;nan
55685;BME280;41883;49.544;8.646;2023-04-21T09:54:42;100133.97;;;22.30;nan
55685;BME280;41883;49.544;8.646;2023-04-21T09:57:09;100125.47;;;22.95;nan
55685;BME280;41883;49.544;8.646;2023-04-21T09:59:39;100113.59;;;23.25;nan
55685;BME280;41883;49.544;8.646;2023-04-21T10:02:08;100126.66;;;23.50;nan
55685;BME280;41883;49.544;8.646;2023-04-21T10:04:33;100113.78;;;24.13;nan
55685;BME280;41883;49.544;8.646;2023-04-21T10:07:00;100101.03;;;24.08;nan
55685;BME280;41883;49.544;8.646;2023-04-21T10:09:26;100100.63;;;24.98;nan
55685;BME280;41883;49.544;8.646;2023-04-21T10:11:55;100101.56;;;25.46;nan
55685;BME280;41883;49.544;8.646;2023-04-21T10:14:21;100101.19;;;25.75;nan
55685;BME280;41883;49.544;8.646;2023-04-21T10:16:57;100102.25;;;25.74;nan
55685;BME280;41883;49.544;8.646;2023-04-21T10:19:27;100096.06;;;25.36;nan
55685;BME280;41883;49.544;8.646;2023-04-21T10:21:55;100094.22;;;25.09;nan
55685;BME280;41883;49.544;8.646;2023-04-21T10:24:27;100091.16;;;24.68;nan
55685;BME280;41883;49.544;8.646;2023-04-21T10:26:52;100096.28;;;24.43;nan
55685;BME280;41883;49.544;8.646;2023-04-21T10:29:27;100096.44;;;24.53;nan
55685;BME280;41883;49.544;8.646;2023-04-21T10:31:52;100090.13;;;24.25;nan
55685;BME280;41883;49.544;8.646;2023-04-21T10:34:39;100095.44;;;24.91;nan
55685;BME280;41883;49.544;8.646;2023-04-21T10:39:32;100086.56;;;25.81;nan
55685;BME280;41883;49.544;8.646;2023-04-21T10:44:44;100077.69;;;26.89;nan
55685;BME280;41883;49.544;8.646;2023-04-21T10:47:20;100071.19;;;27.01;nan
55685;BME280;41883;49.544;8.646;2023-04-21T10:49:48;100063.53;;;26.36;nan
55685;BME280;41883;49.544;8.646;2023-04-21T10:52:13;100067.38;;;26.61;nan
55685;BME280;41883;49.544;8.646;2023-04-21T10:57:26;100066.25;;;27.54;nan
55685;BME280;41883;49.544;8.646;2023-04-21T10:59:55;100064.19;;;28.01;nan
55685;BME280;41883;49.544;8.646;2023-04-21T11:02:20;100055.84;;;27.87;nan
55685;BME280;41883;49.544;8.646;2023-04-21T11:04:49;100055.00;;;28.46;nan
55685;BME280;41883;49.544;8.646;2023-04-21T11:07:15;100053.44;;;29.09;nan
55685;BME280;41883;49.544;8.646;2023-04-21T11:09:41;100040.06;;;28.38;nan
55685;BME280;41883;49.544;8.646;2023-04-21T11:12:08;100043.25;;;28.06;nan
55685;BME280;41883;49.544;8.646;2023-04-21T11:14:34;100036.38;;;28.19;nan
55685;BME280;41883;49.544;8.646;2023-04-21T11:17:00;100025.53;;;28.14;nan
55685;BME280;41883;49.544;8.646;2023-04-21T11:19:25;100027.53;;;28.77;nan
55685;BME280;41883;49.544;8.646;2023-04-21T11:21:53;100025.06;;;28.51;nan
55685;BME280;41883;49.544;8.646;2023-04-21T11:24:19;100019.44;;;27.83;nan
55685;BME280;41883;49.544;8.646;2023-04-21T11:26:45;100009.34;;;26.72;nan
55685;BME280;41883;49.544;8.646;2023-04-21T11:29:10;100002.28;;;26.81;nan
55685;BME280;41883;49.544;8.646;2023-04-21T11:31:36;99994.50;;;27.65;nan
55685;BME280;41883;49.544;8.646;2023-04-21T11:34:02;99999.19;;;28.54;nan
55685;BME280;41883;49.544;8.646;2023-04-21T11:36:40;99993.22;;;29.39;nan
55685;BME280;41883;49.544;8.646;2023-04-21T11:39:06;99990.81;;;28.79;nan
55685;BME280;41883;49.544;8.646;2023-04-21T11:41:33;99991.19;;;27.79;nan
55685;BME280;41883;49.544;8.646;2023-04-21T11:44:00;99977.59;;;28.63;nan
55685;BME280;41883;49.544;8.646;2023-04-21T11:46:26;99983.78;;;28.73;nan
55685;BME280;41883;49.544;8.646;2023-04-21T11:48:58;99987.59;;;27.08;nan
55685;BME280;41883;49.544;8.646;2023-04-21T11:51:23;99987.31;;;27.95;nan
55685;BME280;41883;49.544;8.646;2023-04-21T11:53:49;99975.69;;;27.79;nan
55685;BME280;41883;49.544;8.646;2023-04-21T11:56:19;99987.84;;;27.22;nan
55685;BME280;41883;49.544;8.646;2023-04-21T11:58:45;99977.28;;;27.15;nan
55685;BME280;41883;49.544;8.646;2023-04-21T12:01:13;99968.66;;;26.57;nan
55685;BME280;41883;49.544;8.646;2023-04-21T12:03:39;99969.38;;;24.90;nan
55685;BME280;41883;49.544;8.646;2023-04-21T12:06:04;99967.63;;;25.69;nan
55685;BME280;41883;49.544;8.646;2023-04-21T12:08:31;99962.59;;;23.52;nan
55685;BME280;41883;49.544;8.646;2023-04-21T12:10:56;99960.53;;;22.64;nan
55685;BME280;41883;49.544;8.646;2023-04-21T12:13:23;99958.00;;;22.75;nan
55685;BME280;41883;49.544;8.646;2023-04-21T12:15:48;99958.16;;;22.34;nan
55685;BME280;41883;49.544;8.646;2023-04-21T12:18:13;99959.63;;;22.76;nan
55685;BME280;41883;49.544;8.646;2023-04-21T12:20:47;99969.50;;;23.65;nan
55685;BME280;41883;49.544;8.646;2023-04-21T12:23:13;99967.94;;;23.25;nan
55685;BME280;41883;49.544;8.646;2023-04-21T12:25:38;99965.50;;;22.89;nan
55685;BME280;41883;49.544;8.646;2023-04-21T12:28:03;99972.50;;;22.40;nan
55685;BME280;41883;49.544;8.646;2023-04-21T12:30:31;99976.03;;;22.12;nan
55685;BME280;41883;49.544;8.646;2023-04-21T12:32:56;99970.75;;;21.48;nan
55685;BME280;41883;49.544;8.646;2023-04-21T12:35:22;99971.69;;;21.41;nan
55685;BME280;41883;49.544;8.646;2023-04-21T12:37:47;99967.59;;;21.51;nan
55685;BME280;41883;49.544;8.646;2023-04-21T12:40:12;99974.47;;;21.58;nan
55685;BME280;41883;49.544;8.646;2023-04-21T12:42:37;99962.81;;;21.29;nan
55685;BME280;41883;49.544;8.646;2023-04-21T12:45:03;99969.22;;;21.28;nan
55685;BME280;41883;49.544;8.646;2023-04-21T12:47:29;99965.50;;;21.06;nan
55685;BME280;41883;49.544;8.646;2023-04-21T12:49:54;99963.25;;;20.55;nan
55685;BME280;41883;49.544;8.646;2023-04-21T12:52:20;99965.75;;;19.97;nan
55685;BME280;41883;49.544;8.646;2023-04-21T12:54:45;99959.50;;;19.66;nan
55685;BME280;41883;49.544;8.646;2023-04-21T12:57:10;99959.38;;;19.24;nan
55685;BME280;41883;49.544;8.646;2023-04-21T12:59:35;99958.69;;;19.47;nan
55685;BME280;41883;49.544;8.646;2023-04-21T13:02:01;99950.75;;;19.40;nan
55685;BME280;41883;49.544;8.646;2023-04-21T13:04:29;99947.97;;;19.47;nan
55685;BME280;41883;49.544;8.646;2023-04-21T13:06:54;99948.81;;;19.47;nan
55685;BME280;41883;49.544;8.646;2023-04-21T13:09:19;99948.88;;;19.41;nan
55685;BME280;41883;49.544;8.646;2023-04-21T13:11:44;99941.56;;;19.48;nan
55685;BME280;41883;49.544;8.646;2023-04-21T13:14:10;99948.41;;;19.25;nan
55685;BME280;41883;49.544;8.646;2023-04-21T13:16:35;99948.63;;;19.05;nan
55685;BME280;41883;49.544;8.646;2023-04-21T13:19:00;99955.88;;;19.05;nan